sensor_id;sensor_type;location;lat;lon;timestamp;P1;durP1;ratioP1;P2;durP2;ratioP2
56511;SDS011;42408;53.238;5.686;2023-04-15T00:00:48;11.43;;;6.55;;
56511;SDS011;42408;53.238;5.686;2023-04-15T00:03:15;13.57;;;6.53;;
56511;SDS011;42408;53.238;5.686;2023-04-15T00:05:41;11.73;;;6.90;;
56511;SDS011;42408;53.238;5.686;2023-04-15T00:08:07;10.20;;;6.37;;
56511;SDS011;42408;53.238;5.686;2023-04-15T00:10:33;12.07;;;6.20;;
56511;SDS011;42408;53.238;5.686;2023-04-15T00:12:58;14.43;;;6.77;;
56511;SDS011;42408;53.238;5.686;2023-04-15T00:15:24;12.93;;;7.00;;
56511;SDS011;42408;53.238;5.686;2023-04-15T00:17:51;12.77;;;6.93;;
56511;SDS011;42408;53.238;5.686;2023-04-15T00:20:16;13.73;;;6.77;;
56511;SDS011;42408;53.238;5.686;2023-04-15T00:22:42;12.83;;;6.70;;
56511;SDS011;42408;53.238;5.686;2023-04-15T00:25:08;12.17;;;6.50;;
56511;SDS011;42408;53.238;5.686;2023-04-15T00:27:33;11.37;;;6.73;;
56511;SDS011;42408;53.238;5.686;2023-04-15T00:29:59;12.63;;;6.83;;
56511;SDS011;42408;53.238;5.686;2023-04-15T00:32:25;12.33;;;7.03;;
56511;SDS011;42408;53.238;5.686;2023-04-15T00:34:50;11.07;;;6.30;;
56511;SDS011;42408;53.238;5.686;2023-04-15T00:37:16;12.17;;;7.10;;
56511;SDS011;42408;53.238;5.686;2023-04-15T00:39:42;12.67;;;7.23;;
56511;SDS011;42408;53.238;5.686;2023-04-15T00:42:08;13.73;;;6.93;;
56511;SDS011;42408;53.238;5.686;2023-04-15T00:44:34;12.88;;;6.75;;
56511;SDS011;42408;53.238;5.686;2023-04-15T00:47:00;10.90;;;6.10;;
56511;SDS011;42408;53.238;5.686;2023-04-15T00:49:28;11.00;;;7.00;;
56511;SDS011;42408;53.238;5.686;2023-04-15T00:51:56;12.35;;;7.35;;
56511;SDS011;42408;53.238;5.686;2023-04-15T00:54:21;11.57;;;7.83;;
56511;SDS011;42408;53.238;5.686;2023-04-15T00:56:47;12.43;;;7.03;;
56511;SDS011;42408;53.238;5.686;2023-04-15T00:59:13;12.40;;;7.17;;
56511;SDS011;42408;53.238;5.686;2023-04-15T01:01:39;14.03;;;7.27;;
56511;SDS011;42408;53.238;5.686;2023-04-15T01:04:05;12.07;;;9.05;;
56511;SDS011;42408;53.238;5.686;2023-04-15T01:06:31;13.00;;;8.60;;
56511;SDS011;42408;53.238;5.686;2023-04-15T01:08:57;14.80;;;8.53;;
56511;SDS011;42408;53.238;5.686;2023-04-15T01:11:23;12.63;;;8.02;;
56511;SDS011;42408;53.238;5.686;2023-04-15T01:13:49;14.18;;;8.68;;
56511;SDS011;42408;53.238;5.686;2023-04-15T01:18:43;14.27;;;9.00;;
56511;SDS011;42408;53.238;5.686;2023-04-15T01:21:09;13.20;;;8.73;;
56511;SDS011;42408;53.238;5.686;2023-04-15T01:23:36;13.20;;;8.87;;
56511;SDS011;42408;53.238;5.686;2023-04-15T01:28:29;13.45;;;9.88;;
56511;SDS011;42408;53.238;5.686;2023-04-15T01:31:12;13.68;;;8.55;;
56511;SDS011;42408;53.238;5.686;2023-04-15T01:33:40;14.00;;;10.57;;
56511;SDS011;42408;53.238;5.686;2023-04-15T01:36:07;13.45;;;10.13;;
56511;SDS011;42408;53.238;5.686;2023-04-15T01:41:00;15.05;;;10.75;;
56511;SDS011;42408;53.238;5.686;2023-04-15T01:43:28;13.07;;;10.45;;
56511;SDS011;42408;53.238;5.686;2023-04-15T01:45:53;14.80;;;11.00;;
56511;SDS011;42408;53.238;5.686;2023-04-15T01:48:20;16.77;;;11.25;;
56511;SDS011;42408;53.238;5.686;2023-04-15T01:50:47;15.07;;;11.48;;
56511;SDS011;42408;53.238;5.686;2023-04-15T01:53:13;13.23;;;11.30;;
56511;SDS011;42408;53.238;5.686;2023-04-15T01:55:39;15.20;;;11.63;;
56511;SDS011;42408;53.238;5.686;2023-04-15T01:58:05;22.33;;;11.80;;
56511;SDS011;42408;53.238;5.686;2023-04-15T02:00:31;14.70;;;11.23;;
56511;SDS011;42408;53.238;5.686;2023-04-15T02:02:57;14.80;;;11.83;;
56511;SDS011;42408;53.238;5.686;2023-04-15T02:05:23;17.47;;;12.53;;
56511;SDS011;42408;53.238;5.686;2023-04-15T02:07:49;17.45;;;12.70;;
56511;SDS011;42408;53.238;5.686;2023-04-15T02:10:15;17.55;;;12.10;;
56511;SDS011;42408;53.238;5.686;2023-04-15T02:12:41;17.27;;;12.87;;
56511;SDS011;42408;53.238;5.686;2023-04-15T02:15:07;18.37;;;12.00;;
56511;SDS011;42408;53.238;5.686;2023-04-15T02:17:34;17.67;;;11.80;;
56511;SDS011;42408;53.238;5.686;2023-04-15T02:20:03;18.27;;;12.48;;
56511;SDS011;42408;53.238;5.686;2023-04-15T02:22:32;16.50;;;11.65;;
56511;SDS011;42408;53.238;5.686;2023-04-15T02:24:58;19.75;;;11.98;;
56511;SDS011;42408;53.238;5.686;2023-04-15T02:27:24;15.97;;;12.50;;
56511;SDS011;42408;53.238;5.686;2023-04-15T02:29:50;16.07;;;12.37;;
56511;SDS011;42408;53.238;5.686;2023-04-15T02:32:16;16.60;;;12.00;;
56511;SDS011;42408;53.238;5.686;2023-04-15T02:34:42;17.63;;;12.90;;
56511;SDS011;42408;53.238;5.686;2023-04-15T02:37:11;17.73;;;12.13;;
56511;SDS011;42408;53.238;5.686;2023-04-15T02:39:37;19.92;;;12.73;;
56511;SDS011;42408;53.238;5.686;2023-04-15T02:42:03;15.87;;;11.67;;
56511;SDS011;42408;53.238;5.686;2023-04-15T02:44:30;16.30;;;12.27;;
56511;SDS011;42408;53.238;5.686;2023-04-15T02:46:57;16.95;;;13.30;;
56511;SDS011;42408;53.238;5.686;2023-04-15T02:49:23;17.80;;;13.07;;
56511;SDS011;42408;53.238;5.686;2023-04-15T02:51:49;20.45;;;12.73;;
56511;SDS011;42408;53.238;5.686;2023-04-15T02:54:18;21.57;;;14.20;;
56511;SDS011;42408;53.238;5.686;2023-04-15T02:56:45;18.38;;;13.38;;
56511;SDS011;42408;53.238;5.686;2023-04-15T02:59:11;20.60;;;13.80;;
56511;SDS011;42408;53.238;5.686;2023-04-15T03:01:37;22.45;;;14.23;;
56511;SDS011;42408;53.238;5.686;2023-04-15T03:04:03;19.53;;;13.90;;
56511;SDS011;42408;53.238;5.686;2023-04-15T03:06:28;18.97;;;13.70;;
56511;SDS011;42408;53.238;5.686;2023-04-15T03:08:54;16.65;;;12.57;;
56511;SDS011;42408;53.238;5.686;2023-04-15T03:11:21;19.70;;;13.23;;
56511;SDS011;42408;53.238;5.686;2023-04-15T03:13:47;20.85;;;12.90;;
56511;SDS011;42408;53.238;5.686;2023-04-15T03:16:12;20.47;;;14.30;;
56511;SDS011;42408;53.238;5.686;2023-04-15T03:18:38;18.47;;;13.00;;
56511;SDS011;42408;53.238;5.686;2023-04-15T03:21:04;20.47;;;12.93;;
56511;SDS011;42408;53.238;5.686;2023-04-15T03:23:30;18.13;;;12.93;;
56511;SDS011;42408;53.238;5.686;2023-04-15T03:25:56;19.73;;;13.93;;
56511;SDS011;42408;53.238;5.686;2023-04-15T03:28:23;19.02;;;12.45;;
56511;SDS011;42408;53.238;5.686;2023-04-15T03:30:48;17.87;;;11.77;;
56511;SDS011;42408;53.238;5.686;2023-04-15T03:33:14;18.80;;;11.90;;
56511;SDS011;42408;53.238;5.686;2023-04-15T03:35:40;19.17;;;12.70;;
56511;SDS011;42408;53.238;5.686;2023-04-15T03:38:05;19.83;;;13.07;;
56511;SDS011;42408;53.238;5.686;2023-04-15T03:40:31;18.20;;;12.40;;
56511;SDS011;42408;53.238;5.686;2023-04-15T03:42:56;19.63;;;13.73;;
56511;SDS011;42408;53.238;5.686;2023-04-15T03:45:22;20.23;;;12.33;;
56511;SDS011;42408;53.238;5.686;2023-04-15T03:47:48;19.57;;;12.97;;
56511;SDS011;42408;53.238;5.686;2023-04-15T03:50:13;20.57;;;13.20;;
56511;SDS011;42408;53.238;5.686;2023-04-15T03:52:39;19.27;;;12.40;;
56511;SDS011;42408;53.238;5.686;2023-04-15T03:55:05;22.53;;;14.43;;
56511;SDS011;42408;53.238;5.686;2023-04-15T04:00:02;17.73;;;12.45;;
56511;SDS011;42408;53.238;5.686;2023-04-15T04:02:28;18.30;;;12.93;;
56511;SDS011;42408;53.238;5.686;2023-04-15T04:04:54;19.23;;;13.20;;
56511;SDS011;42408;53.238;5.686;2023-04-15T04:07:20;19.03;;;12.80;;
56511;SDS011;42408;53.238;5.686;2023-04-15T04:09:48;19.20;;;12.85;;
56511;SDS011;42408;53.238;5.686;2023-04-15T04:12:13;18.57;;;12.43;;
56511;SDS011;42408;53.238;5.686;2023-04-15T04:14:39;21.53;;;13.47;;
56511;SDS011;42408;53.238;5.686;2023-04-15T04:17:05;18.93;;;12.80;;
56511;SDS011;42408;53.238;5.686;2023-04-15T04:19:31;19.40;;;12.87;;
56511;SDS011;42408;53.238;5.686;2023-04-15T04:21:56;18.57;;;13.37;;
56511;SDS011;42408;53.238;5.686;2023-04-15T04:24:22;17.27;;;13.57;;
56511;SDS011;42408;53.238;5.686;2023-04-15T04:26:48;19.20;;;12.80;;
56511;SDS011;42408;53.238;5.686;2023-04-15T04:29:13;19.07;;;12.90;;
56511;SDS011;42408;53.238;5.686;2023-04-15T04:31:39;17.97;;;12.87;;
56511;SDS011;42408;53.238;5.686;2023-04-15T04:34:05;20.27;;;13.50;;
56511;SDS011;42408;53.238;5.686;2023-04-15T04:36:31;17.57;;;12.53;;
56511;SDS011;42408;53.238;5.686;2023-04-15T04:38:56;19.93;;;13.80;;
56511;SDS011;42408;53.238;5.686;2023-04-15T04:41:22;19.40;;;13.37;;
56511;SDS011;42408;53.238;5.686;2023-04-15T04:43:48;21.40;;;13.87;;
56511;SDS011;42408;53.238;5.686;2023-04-15T04:46:13;20.17;;;13.50;;
56511;SDS011;42408;53.238;5.686;2023-04-15T04:48:39;20.20;;;12.67;;
56511;SDS011;42408;53.238;5.686;2023-04-15T04:51:05;22.27;;;14.87;;
56511;SDS011;42408;53.238;5.686;2023-04-15T04:53:31;21.83;;;14.73;;
56511;SDS011;42408;53.238;5.686;2023-04-15T04:55:57;23.63;;;14.20;;
56511;SDS011;42408;53.238;5.686;2023-04-15T04:58:23;20.40;;;14.00;;
56511;SDS011;42408;53.238;5.686;2023-04-15T05:00:48;23.30;;;15.17;;
56511;SDS011;42408;53.238;5.686;2023-04-15T05:03:15;22.47;;;15.07;;
56511;SDS011;42408;53.238;5.686;2023-04-15T05:05:40;21.40;;;15.10;;
56511;SDS011;42408;53.238;5.686;2023-04-15T05:08:06;18.63;;;13.83;;
56511;SDS011;42408;53.238;5.686;2023-04-15T05:10:31;17.60;;;13.17;;
56511;SDS011;42408;53.238;5.686;2023-04-15T05:12:57;21.30;;;14.47;;
56511;SDS011;42408;53.238;5.686;2023-04-15T05:15:23;20.67;;;14.53;;
56511;SDS011;42408;53.238;5.686;2023-04-15T05:17:49;21.20;;;14.55;;
56511;SDS011;42408;53.238;5.686;2023-04-15T05:20:15;20.48;;;14.43;;
56511;SDS011;42408;53.238;5.686;2023-04-15T05:22:41;20.60;;;15.13;;
56511;SDS011;42408;53.238;5.686;2023-04-15T05:25:07;21.40;;;15.87;;
56511;SDS011;42408;53.238;5.686;2023-04-15T05:27:33;24.65;;;16.77;;
56511;SDS011;42408;53.238;5.686;2023-04-15T05:29:59;22.63;;;17.00;;
56511;SDS011;42408;53.238;5.686;2023-04-15T05:32:25;25.40;;;16.07;;
56511;SDS011;42408;53.238;5.686;2023-04-15T05:34:50;23.53;;;15.90;;
56511;SDS011;42408;53.238;5.686;2023-04-15T05:37:16;19.50;;;12.90;;
56511;SDS011;42408;53.238;5.686;2023-04-15T05:39:44;18.88;;;13.70;;
56511;SDS011;42408;53.238;5.686;2023-04-15T05:42:10;22.40;;;13.50;;
56511;SDS011;42408;53.238;5.686;2023-04-15T05:44:36;20.63;;;13.27;;
56511;SDS011;42408;53.238;5.686;2023-04-15T05:47:02;18.90;;;12.73;;
56511;SDS011;42408;53.238;5.686;2023-04-15T05:49:27;21.13;;;13.00;;
56511;SDS011;42408;53.238;5.686;2023-04-15T05:51:53;18.75;;;12.20;;
56511;SDS011;42408;53.238;5.686;2023-04-15T05:54:19;17.00;;;12.23;;
56511;SDS011;42408;53.238;5.686;2023-04-15T05:56:47;17.27;;;10.95;;
56511;SDS011;42408;53.238;5.686;2023-04-15T05:59:13;19.53;;;10.83;;
56511;SDS011;42408;53.238;5.686;2023-04-15T06:01:38;16.27;;;11.10;;
56511;SDS011;42408;53.238;5.686;2023-04-15T06:04:04;13.07;;;9.27;;
56511;SDS011;42408;53.238;5.686;2023-04-15T06:06:30;14.17;;;8.57;;
56511;SDS011;42408;53.238;5.686;2023-04-15T06:08:56;11.82;;;7.65;;
56511;SDS011;42408;53.238;5.686;2023-04-15T06:11:22;12.70;;;7.23;;
56511;SDS011;42408;53.238;5.686;2023-04-15T06:13:48;11.33;;;7.27;;
56511;SDS011;42408;53.238;5.686;2023-04-15T06:16:13;9.00;;;6.20;;
56511;SDS011;42408;53.238;5.686;2023-04-15T06:18:39;11.03;;;6.90;;
56511;SDS011;42408;53.238;5.686;2023-04-15T06:21:05;9.30;;;6.67;;
56511;SDS011;42408;53.238;5.686;2023-04-15T06:23:33;11.40;;;6.73;;
56511;SDS011;42408;53.238;5.686;2023-04-15T06:26:00;10.35;;;6.53;;
56511;SDS011;42408;53.238;5.686;2023-04-15T06:28:25;9.07;;;6.23;;
56511;SDS011;42408;53.238;5.686;2023-04-15T06:30:51;10.63;;;7.70;;
56511;SDS011;42408;53.238;5.686;2023-04-15T06:33:17;12.57;;;8.25;;
56511;SDS011;42408;53.238;5.686;2023-04-15T06:35:43;11.80;;;8.00;;
56511;SDS011;42408;53.238;5.686;2023-04-15T06:38:09;14.10;;;8.90;;
56511;SDS011;42408;53.238;5.686;2023-04-15T06:40:35;14.87;;;9.23;;
56511;SDS011;42408;53.238;5.686;2023-04-15T06:43:00;14.60;;;9.10;;
56511;SDS011;42408;53.238;5.686;2023-04-15T06:45:26;15.83;;;10.03;;
56511;SDS011;42408;53.238;5.686;2023-04-15T06:47:52;14.70;;;11.23;;
56511;SDS011;42408;53.238;5.686;2023-04-15T06:50:17;14.40;;;9.57;;
56511;SDS011;42408;53.238;5.686;2023-04-15T06:52:43;16.77;;;10.60;;
56511;SDS011;42408;53.238;5.686;2023-04-15T06:55:09;14.67;;;11.17;;
56511;SDS011;42408;53.238;5.686;2023-04-15T06:57:34;22.53;;;13.60;;
56511;SDS011;42408;53.238;5.686;2023-04-15T07:00:01;16.77;;;11.03;;
56511;SDS011;42408;53.238;5.686;2023-04-15T07:02:29;17.67;;;11.15;;
56511;SDS011;42408;53.238;5.686;2023-04-15T07:04:55;17.63;;;13.30;;
56511;SDS011;42408;53.238;5.686;2023-04-15T07:07:21;19.20;;;13.30;;
56511;SDS011;42408;53.238;5.686;2023-04-15T07:09:46;18.87;;;13.43;;
56511;SDS011;42408;53.238;5.686;2023-04-15T07:12:12;18.50;;;13.50;;
56511;SDS011;42408;53.238;5.686;2023-04-15T07:14:38;19.43;;;13.97;;
56511;SDS011;42408;53.238;5.686;2023-04-15T07:17:03;20.87;;;13.37;;
56511;SDS011;42408;53.238;5.686;2023-04-15T07:19:29;23.83;;;14.70;;
56511;SDS011;42408;53.238;5.686;2023-04-15T07:21:55;20.50;;;13.93;;
56511;SDS011;42408;53.238;5.686;2023-04-15T07:24:21;19.83;;;12.73;;
56511;SDS011;42408;53.238;5.686;2023-04-15T07:26:50;18.85;;;12.95;;
56511;SDS011;42408;53.238;5.686;2023-04-15T07:29:18;15.90;;;12.55;;
56511;SDS011;42408;53.238;5.686;2023-04-15T07:31:43;18.70;;;11.27;;
56511;SDS011;42408;53.238;5.686;2023-04-15T07:34:09;17.17;;;11.50;;
56511;SDS011;42408;53.238;5.686;2023-04-15T07:36:35;15.23;;;9.60;;
56511;SDS011;42408;53.238;5.686;2023-04-15T07:39:01;14.90;;;9.73;;
56511;SDS011;42408;53.238;5.686;2023-04-15T07:43:54;14.75;;;8.73;;
56511;SDS011;42408;53.238;5.686;2023-04-15T07:46:19;13.73;;;8.33;;
56511;SDS011;42408;53.238;5.686;2023-04-15T07:48:45;12.00;;;7.20;;
56511;SDS011;42408;53.238;5.686;2023-04-15T07:51:11;13.13;;;7.07;;
56511;SDS011;42408;53.238;5.686;2023-04-15T07:53:37;14.77;;;7.97;;
56511;SDS011;42408;53.238;5.686;2023-04-15T07:56:03;14.37;;;7.77;;
56511;SDS011;42408;53.238;5.686;2023-04-15T07:58:29;10.85;;;6.95;;
56511;SDS011;42408;53.238;5.686;2023-04-15T08:00:55;13.32;;;6.43;;
56511;SDS011;42408;53.238;5.686;2023-04-15T08:03:21;10.93;;;5.73;;
56511;SDS011;42408;53.238;5.686;2023-04-15T08:05:47;11.25;;;6.38;;
56511;SDS011;42408;53.238;5.686;2023-04-15T08:08:13;9.70;;;5.93;;
56511;SDS011;42408;53.238;5.686;2023-04-15T08:10:39;10.50;;;6.10;;
56511;SDS011;42408;53.238;5.686;2023-04-15T08:13:05;9.07;;;5.50;;
56511;SDS011;42408;53.238;5.686;2023-04-15T08:15:30;12.40;;;7.07;;
56511;SDS011;42408;53.238;5.686;2023-04-15T08:17:57;11.18;;;5.75;;
56511;SDS011;42408;53.238;5.686;2023-04-15T08:20:24;10.50;;;5.88;;
56511;SDS011;42408;53.238;5.686;2023-04-15T08:22:50;8.80;;;5.23;;
56511;SDS011;42408;53.238;5.686;2023-04-15T08:27:44;7.68;;;4.65;;
56511;SDS011;42408;53.238;5.686;2023-04-15T08:30:10;8.18;;;5.07;;
56511;SDS011;42408;53.238;5.686;2023-04-15T08:32:36;7.13;;;4.68;;
56511;SDS011;42408;53.238;5.686;2023-04-15T08:35:02;7.63;;;4.60;;
56511;SDS011;42408;53.238;5.686;2023-04-15T08:37:28;8.37;;;4.50;;
56511;SDS011;42408;53.238;5.686;2023-04-15T08:39:54;6.97;;;4.27;;
56511;SDS011;42408;53.238;5.686;2023-04-15T08:42:22;8.70;;;5.00;;
56511;SDS011;42408;53.238;5.686;2023-04-15T08:44:55;6.53;;;4.03;;
56511;SDS011;42408;53.238;5.686;2023-04-15T08:47:29;10.43;;;5.35;;
56511;SDS011;42408;53.238;5.686;2023-04-15T08:49:56;9.98;;;5.30;;
56511;SDS011;42408;53.238;5.686;2023-04-15T08:52:25;12.35;;;6.18;;
56511;SDS011;42408;53.238;5.686;2023-04-15T08:54:53;8.00;;;5.03;;
56511;SDS011;42408;53.238;5.686;2023-04-15T08:57:24;8.95;;;5.47;;
56511;SDS011;42408;53.238;5.686;2023-04-15T08:59:52;8.77;;;5.53;;
56511;SDS011;42408;53.238;5.686;2023-04-15T09:02:22;10.25;;;6.25;;
56511;SDS011;42408;53.238;5.686;2023-04-15T09:04:50;10.25;;;5.43;;
56511;SDS011;42408;53.238;5.686;2023-04-15T09:07:16;10.43;;;5.80;;
56511;SDS011;42408;53.238;5.686;2023-04-15T09:09:41;11.87;;;5.47;;
56511;SDS011;42408;53.238;5.686;2023-04-15T09:12:07;10.53;;;5.67;;
56511;SDS011;42408;53.238;5.686;2023-04-15T09:17:03;8.63;;;5.65;;
56511;SDS011;42408;53.238;5.686;2023-04-15T09:19:29;7.07;;;4.63;;
56511;SDS011;42408;53.238;5.686;2023-04-15T09:21:58;11.35;;;5.28;;
56511;SDS011;42408;53.238;5.686;2023-04-15T09:24:24;11.38;;;5.78;;
56511;SDS011;42408;53.238;5.686;2023-04-15T09:26:52;9.07;;;5.22;;
56511;SDS011;42408;53.238;5.686;2023-04-15T09:29:19;10.52;;;5.55;;
56511;SDS011;42408;53.238;5.686;2023-04-15T09:31:45;11.23;;;5.75;;
56511;SDS011;42408;53.238;5.686;2023-04-15T09:34:11;8.60;;;4.65;;
56511;SDS011;42408;53.238;5.686;2023-04-15T09:39:11;9.10;;;4.53;;
56511;SDS011;42408;53.238;5.686;2023-04-15T09:41:38;8.45;;;5.50;;
56511;SDS011;42408;53.238;5.686;2023-04-15T09:46:40;7.57;;;4.72;;
56511;SDS011;42408;53.238;5.686;2023-04-15T09:49:09;9.35;;;4.55;;
56511;SDS011;42408;53.238;5.686;2023-04-15T09:54:02;9.90;;;5.72;;
56511;SDS011;42408;53.238;5.686;2023-04-15T09:56:35;9.32;;;5.10;;
56511;SDS011;42408;53.238;5.686;2023-04-15T09:59:04;8.70;;;5.10;;
56511;SDS011;42408;53.238;5.686;2023-04-15T10:01:30;7.20;;;3.83;;
56511;SDS011;42408;53.238;5.686;2023-04-15T10:03:56;7.70;;;3.80;;
56511;SDS011;42408;53.238;5.686;2023-04-15T10:06:25;8.32;;;4.07;;
56511;SDS011;42408;53.238;5.686;2023-04-15T10:08:51;7.68;;;4.40;;
56511;SDS011;42408;53.238;5.686;2023-04-15T10:13:45;7.68;;;3.75;;
56511;SDS011;42408;53.238;5.686;2023-04-15T10:16:15;5.10;;;2.45;;
56511;SDS011;42408;53.238;5.686;2023-04-15T10:18:50;9.25;;;3.00;;
56511;SDS011;42408;53.238;5.686;2023-04-15T10:21:22;5.63;;;2.78;;
56511;SDS011;42408;53.238;5.686;2023-04-15T10:23:49;4.40;;;2.35;;
56511;SDS011;42408;53.238;5.686;2023-04-15T10:26:15;4.22;;;2.38;;
56511;SDS011;42408;53.238;5.686;2023-04-15T10:28:42;4.90;;;2.78;;
56511;SDS011;42408;53.238;5.686;2023-04-15T10:31:10;5.88;;;2.60;;
56511;SDS011;42408;53.238;5.686;2023-04-15T10:33:37;4.18;;;2.30;;
56511;SDS011;42408;53.238;5.686;2023-04-15T10:36:03;7.10;;;2.70;;
56511;SDS011;42408;53.238;5.686;2023-04-15T10:38:36;4.95;;;2.38;;
56511;SDS011;42408;53.238;5.686;2023-04-15T10:46:34;6.25;;;2.35;;
56511;SDS011;42408;53.238;5.686;2023-04-15T10:49:12;7.97;;;2.45;;
56511;SDS011;42408;53.238;5.686;2023-04-15T10:51:39;3.15;;;2.05;;
56511;SDS011;42408;53.238;5.686;2023-04-15T10:54:16;6.75;;;2.42;;
56511;SDS011;42408;53.238;5.686;2023-04-15T10:59:36;5.63;;;2.60;;
56511;SDS011;42408;53.238;5.686;2023-04-15T11:02:06;4.88;;;2.75;;
56511;SDS011;42408;53.238;5.686;2023-04-15T11:12:45;5.20;;;2.57;;
56511;SDS011;42408;53.238;5.686;2023-04-15T11:15:28;7.15;;;2.53;;
56511;SDS011;42408;53.238;5.686;2023-04-15T11:17:57;6.07;;;2.55;;
56511;SDS011;42408;53.238;5.686;2023-04-15T11:20:35;5.40;;;2.17;;
56511;SDS011;42408;53.238;5.686;2023-04-15T11:25:28;6.88;;;2.45;;
56511;SDS011;42408;53.238;5.686;2023-04-15T11:27:57;7.28;;;3.58;;
56511;SDS011;42408;53.238;5.686;2023-04-15T11:30:26;4.63;;;2.47;;
56511;SDS011;42408;53.238;5.686;2023-04-15T11:32:56;5.95;;;2.45;;
56511;SDS011;42408;53.238;5.686;2023-04-15T11:35:23;4.72;;;2.50;;
56511;SDS011;42408;53.238;5.686;2023-04-15T11:37:49;6.85;;;2.70;;
56511;SDS011;42408;53.238;5.686;2023-04-15T11:40:16;6.20;;;2.73;;
56511;SDS011;42408;53.238;5.686;2023-04-15T11:42:46;4.97;;;3.20;;
56511;SDS011;42408;53.238;5.686;2023-04-15T11:45:27;8.95;;;3.85;;
56511;SDS011;42408;53.238;5.686;2023-04-15T11:47:53;7.47;;;2.60;;
56511;SDS011;42408;53.238;5.686;2023-04-15T11:50:22;6.50;;;3.10;;
56511;SDS011;42408;53.238;5.686;2023-04-15T11:53:06;7.60;;;3.00;;
56511;SDS011;42408;53.238;5.686;2023-04-15T11:56:07;17.08;;;4.00;;
56511;SDS011;42408;53.238;5.686;2023-04-15T11:58:25;6.75;;;2.63;;
56511;SDS011;42408;53.238;5.686;2023-04-15T12:00:53;8.63;;;3.05;;
56511;SDS011;42408;53.238;5.686;2023-04-15T12:03:27;5.97;;;2.67;;
56511;SDS011;42408;53.238;5.686;2023-04-15T12:06:03;6.60;;;2.97;;
56511;SDS011;42408;53.238;5.686;2023-04-15T12:11:34;5.63;;;2.17;;
56511;SDS011;42408;53.238;5.686;2023-04-15T12:14:05;4.38;;;1.90;;
56511;SDS011;42408;53.238;5.686;2023-04-15T12:16:42;6.07;;;2.17;;
56511;SDS011;42408;53.238;5.686;2023-04-15T12:19:10;6.72;;;2.63;;
56511;SDS011;42408;53.238;5.686;2023-04-15T12:21:39;7.15;;;2.28;;
56511;SDS011;42408;53.238;5.686;2023-04-15T12:24:07;7.65;;;2.70;;
56511;SDS011;42408;53.238;5.686;2023-04-15T12:29:12;6.90;;;2.13;;
56511;SDS011;42408;53.238;5.686;2023-04-15T12:31:51;6.38;;;1.67;;
56511;SDS011;42408;53.238;5.686;2023-04-15T12:36:57;8.10;;;2.20;;
56511;SDS011;42408;53.238;5.686;2023-04-15T12:39:24;4.68;;;1.70;;
56511;SDS011;42408;53.238;5.686;2023-04-15T12:41:51;6.10;;;2.63;;
56511;SDS011;42408;53.238;5.686;2023-04-15T12:44:17;6.13;;;2.72;;
56511;SDS011;42408;53.238;5.686;2023-04-15T12:46:44;8.15;;;2.10;;
56511;SDS011;42408;53.238;5.686;2023-04-15T12:51:35;6.05;;;2.00;;
56511;SDS011;42408;53.238;5.686;2023-04-15T12:54:01;6.10;;;1.83;;
56511;SDS011;42408;53.238;5.686;2023-04-15T12:56:27;8.17;;;3.20;;
56511;SDS011;42408;53.238;5.686;2023-04-15T12:58:53;11.70;;;2.40;;
56511;SDS011;42408;53.238;5.686;2023-04-15T13:01:19;9.10;;;2.30;;
56511;SDS011;42408;53.238;5.686;2023-04-15T13:03:45;6.90;;;2.00;;
56511;SDS011;42408;53.238;5.686;2023-04-15T13:06:10;10.60;;;2.67;;
56511;SDS011;42408;53.238;5.686;2023-04-15T13:08:36;8.07;;;2.30;;
56511;SDS011;42408;53.238;5.686;2023-04-15T13:11:02;8.90;;;2.30;;
56511;SDS011;42408;53.238;5.686;2023-04-15T13:13:28;10.57;;;2.42;;
56511;SDS011;42408;53.238;5.686;2023-04-15T13:15:55;10.60;;;3.03;;
56511;SDS011;42408;53.238;5.686;2023-04-15T13:18:22;6.35;;;2.28;;
56511;SDS011;42408;53.238;5.686;2023-04-15T13:20:47;8.67;;;2.90;;
56511;SDS011;42408;53.238;5.686;2023-04-15T13:23:13;6.65;;;2.22;;
56511;SDS011;42408;53.238;5.686;2023-04-15T13:25:39;8.13;;;2.27;;
56511;SDS011;42408;53.238;5.686;2023-04-15T13:28:05;7.00;;;2.23;;
56511;SDS011;42408;53.238;5.686;2023-04-15T13:30:31;9.77;;;2.37;;
56511;SDS011;42408;53.238;5.686;2023-04-15T13:32:56;7.17;;;2.57;;
56511;SDS011;42408;53.238;5.686;2023-04-15T13:35:22;7.03;;;2.40;;
56511;SDS011;42408;53.238;5.686;2023-04-15T13:37:48;11.57;;;3.10;;
56511;SDS011;42408;53.238;5.686;2023-04-15T13:40:13;8.00;;;2.60;;
56511;SDS011;42408;53.238;5.686;2023-04-15T13:42:39;5.40;;;2.20;;
56511;SDS011;42408;53.238;5.686;2023-04-15T13:45:06;8.45;;;2.25;;
56511;SDS011;42408;53.238;5.686;2023-04-15T13:47:32;6.95;;;2.40;;
56511;SDS011;42408;53.238;5.686;2023-04-15T13:49:58;5.43;;;1.90;;
56511;SDS011;42408;53.238;5.686;2023-04-15T13:52:24;5.43;;;1.80;;
56511;SDS011;42408;53.238;5.686;2023-04-15T13:54:49;7.57;;;2.03;;
56511;SDS011;42408;53.238;5.686;2023-04-15T13:57:15;8.33;;;2.50;;
56511;SDS011;42408;53.238;5.686;2023-04-15T13:59:41;9.50;;;2.07;;
56511;SDS011;42408;53.238;5.686;2023-04-15T14:02:08;8.98;;;2.55;;
56511;SDS011;42408;53.238;5.686;2023-04-15T14:04:33;11.07;;;2.50;;
56511;SDS011;42408;53.238;5.686;2023-04-15T14:06:59;9.17;;;2.07;;
56511;SDS011;42408;53.238;5.686;2023-04-15T14:09:25;7.53;;;2.27;;
56511;SDS011;42408;53.238;5.686;2023-04-15T14:11:51;6.03;;;1.80;;
56511;SDS011;42408;53.238;5.686;2023-04-15T14:14:16;6.13;;;1.83;;
56511;SDS011;42408;53.238;5.686;2023-04-15T14:16:42;6.27;;;2.30;;
56511;SDS011;42408;53.238;5.686;2023-04-15T14:19:08;8.77;;;2.23;;
56511;SDS011;42408;53.238;5.686;2023-04-15T14:21:33;6.07;;;1.97;;
56511;SDS011;42408;53.238;5.686;2023-04-15T14:23:59;8.27;;;2.37;;
56511;SDS011;42408;53.238;5.686;2023-04-15T14:26:25;8.80;;;3.03;;
56511;SDS011;42408;53.238;5.686;2023-04-15T14:28:50;7.37;;;2.20;;
56511;SDS011;42408;53.238;5.686;2023-04-15T14:31:17;7.33;;;2.10;;
56511;SDS011;42408;53.238;5.686;2023-04-15T14:33:43;9.60;;;2.45;;
56511;SDS011;42408;53.238;5.686;2023-04-15T14:36:09;10.00;;;2.23;;
56511;SDS011;42408;53.238;5.686;2023-04-15T14:38:35;8.57;;;2.20;;
56511;SDS011;42408;53.238;5.686;2023-04-15T14:41:03;11.90;;;2.47;;
56511;SDS011;42408;53.238;5.686;2023-04-15T14:43:29;8.57;;;2.72;;
56511;SDS011;42408;53.238;5.686;2023-04-15T14:45:54;5.97;;;2.30;;
56511;SDS011;42408;53.238;5.686;2023-04-15T14:48:20;7.80;;;2.20;;
56511;SDS011;42408;53.238;5.686;2023-04-15T14:50:46;7.53;;;2.00;;
56511;SDS011;42408;53.238;5.686;2023-04-15T14:53:11;8.77;;;1.97;;
56511;SDS011;42408;53.238;5.686;2023-04-15T14:55:37;10.17;;;1.77;;
56511;SDS011;42408;53.238;5.686;2023-04-15T14:58:03;5.67;;;2.10;;
56511;SDS011;42408;53.238;5.686;2023-04-15T15:00:28;5.07;;;2.03;;
56511;SDS011;42408;53.238;5.686;2023-04-15T15:02:54;9.40;;;2.20;;
56511;SDS011;42408;53.238;5.686;2023-04-15T15:05:20;4.07;;;2.00;;
56511;SDS011;42408;53.238;5.686;2023-04-15T15:07:46;5.57;;;2.00;;
56511;SDS011;42408;53.238;5.686;2023-04-15T15:10:12;9.93;;;2.37;;
56511;SDS011;42408;53.238;5.686;2023-04-15T15:12:37;5.33;;;2.00;;
56511;SDS011;42408;53.238;5.686;2023-04-15T15:15:03;7.90;;;2.63;;
56511;SDS011;42408;53.238;5.686;2023-04-15T15:17:30;6.95;;;2.15;;
56511;SDS011;42408;53.238;5.686;2023-04-15T15:19:55;8.73;;;2.50;;
56511;SDS011;42408;53.238;5.686;2023-04-15T15:22:21;6.85;;;2.10;;
56511;SDS011;42408;53.238;5.686;2023-04-15T15:24:47;7.80;;;2.00;;
56511;SDS011;42408;53.238;5.686;2023-04-15T15:27:13;4.00;;;1.80;;
56511;SDS011;42408;53.238;5.686;2023-04-15T15:29:38;4.37;;;2.13;;